sensor_id;sensor_type;location;lat;lon;timestamp;pressure;altitude;pressure_sealevel;temperature;humidity
62152;BME280;48139;47.474;19.034;2022-08-19T03:58:24;99835.19;;;26.86;50.08
62152;BME280;48139;47.474;19.034;2022-08-19T04:01:28;99835.19;;;26.86;50.08
62152;BME280;48139;47.474;19.034;2022-08-19T04:04:41;99829.16;;;26.19;50.08
62152;BME280;48139;47.474;19.034;2022-08-19T04:07:45;99826.19;;;26.14;50.39
62152;BME280;48139;47.474;19.034;2022-08-19T04:10:48;99822.94;;;26.19;50.10
62152;BME280;48139;47.474;19.034;2022-08-19T04:13:52;99837.69;;;26.23;49.63
62152;BME280;48139;47.474;19.034;2022-08-19T04:16:55;99843.88;;;26.23;49.40
62152;BME280;48139;47.474;19.034;2022-08-19T04:19:59;99847.97;;;26.34;49.03
62152;BME280;48139;47.474;19.034;2022-08-19T04:23:02;99855.19;;;26.33;49.10
62152;BME280;48139;47.474;19.034;2022-08-19T04:26:04;99857.88;;;26.33;48.81
62152;BME280;48139;47.474;19.034;2022-08-19T04:29:15;99841.87;;;26.40;48.62
62152;BME280;48139;47.474;19.034;2022-08-19T04:32:17;99841.94;;;26.32;48.86
62152;BME280;48139;47.474;19.034;2022-08-19T04:35:20;99853.53;;;26.32;48.87
62152;BME280;48139;47.474;19.034;2022-08-19T04:38:26;99859.28;;;26.29;49.28
62152;BME280;48139;47.474;19.034;2022-08-19T04:41:28;99865.13;;;26.33;49.10
62152;BME280;48139;47.474;19.034;2022-08-19T04:44:49;99864.28;;;26.32;49.24
62152;BME280;48139;47.474;19.034;2022-08-19T04:47:55;99867.97;;;26.31;49.47
62152;BME280;48139;47.474;19.034;2022-08-19T04:51:20;99861.41;;;26.34;49.08
62152;BME280;48139;47.474;19.034;2022-08-19T04:54:25;99866.22;;;26.38;49.11
62152;BME280;48139;47.474;19.034;2022-08-19T04:57:40;99854.91;;;26.43;49.03
62152;BME280;48139;47.474;19.034;2022-08-19T05:00:43;99852.97;;;26.52;48.69
62152;BME280;48139;47.474;19.034;2022-08-19T05:03:45;99863.87;;;26.50;48.82
62152;BME280;48139;47.474;19.034;2022-08-19T05:06:49;99866.75;;;26.63;48.50
62152;BME280;48139;47.474;19.034;2022-08-19T05:09:52;99864.06;;;26.63;48.37
62152;BME280;48139;47.474;19.034;2022-08-19T05:13:00;99869.34;;;26.71;48.26
62152;BME280;48139;47.474;19.034;2022-08-19T05:16:03;99865.31;;;26.82;47.89
62152;BME280;48139;47.474;19.034;2022-08-19T05:19:05;99870.53;;;26.83;47.86
62152;BME280;48139;47.474;19.034;2022-08-19T05:22:26;99866.63;;;26.86;47.48
62152;BME280;48139;47.474;19.034;2022-08-19T05:25:39;99868.47;;;27.00;46.61
62152;BME280;48139;47.474;19.034;2022-08-19T05:28:42;99872.56;;;27.17;46.41
62152;BME280;48139;47.474;19.034;2022-08-19T05:31:47;99868.16;;;27.31;45.81
62152;BME280;48139;47.474;19.034;2022-08-19T05:34:53;99871.31;;;27.35;45.97
62152;BME280;48139;47.474;19.034;2022-08-19T05:37:56;99870.56;;;27.41;45.94
62152;BME280;48139;47.474;19.034;2022-08-19T05:41:00;99871.19;;;27.43;46.07
62152;BME280;48139;47.474;19.034;2022-08-19T05:44:04;99876.84;;;27.48;45.73
62152;BME280;48139;47.474;19.034;2022-08-19T05:47:13;99870.31;;;27.57;45.44
62152;BME280;48139;47.474;19.034;2022-08-19T05:50:17;99875.38;;;27.66;45.46
62152;BME280;48139;47.474;19.034;2022-08-19T05:53:19;99872.88;;;27.65;45.22
62152;BME280;48139;47.474;19.034;2022-08-19T05:56:22;99875.88;;;27.77;45.01
62152;BME280;48139;47.474;19.034;2022-08-19T05:59:25;99860.41;;;27.85;44.76
62152;BME280;48139;47.474;19.034;2022-08-19T06:02:30;99876.63;;;27.92;45.19
62152;BME280;48139;47.474;19.034;2022-08-19T06:05:35;99875.25;;;28.02;43.99
62152;BME280;48139;47.474;19.034;2022-08-19T06:08:53;99878.94;;;28.23;44.05
62152;BME280;48139;47.474;19.034;2022-08-19T06:11:58;99867.19;;;28.37;43.50
62152;BME280;48139;47.474;19.034;2022-08-19T06:15:05;99866.41;;;28.43;43.95
62152;BME280;48139;47.474;19.034;2022-08-19T06:18:08;99863.72;;;28.49;43.06
62152;BME280;48139;47.474;19.034;2022-08-19T06:21:11;99877.66;;;28.53;43.14
62152;BME280;48139;47.474;19.034;2022-08-19T06:24:17;99872.72;;;28.63;43.03
62152;BME280;48139;47.474;19.034;2022-08-19T06:27:20;99869.00;;;28.64;42.55
62152;BME280;48139;47.474;19.034;2022-08-19T06:30:23;99863.06;;;28.75;42.57
62152;BME280;48139;47.474;19.034;2022-08-19T06:33:26;99858.38;;;28.97;41.94
62152;BME280;48139;47.474;19.034;2022-08-19T06:36:36;99854.22;;;29.01;41.87
62152;BME280;48139;47.474;19.034;2022-08-19T06:39:41;99839.53;;;29.17;41.94
62152;BME280;48139;47.474;19.034;2022-08-19T06:42:44;99854.34;;;29.34;41.43
62152;BME280;48139;47.474;19.034;2022-08-19T06:45:56;99855.78;;;29.37;41.01
62152;BME280;48139;47.474;19.034;2022-08-19T06:49:00;99852.25;;;29.43;41.50
62152;BME280;48139;47.474;19.034;2022-08-19T06:52:04;99843.75;;;29.52;40.85
62152;BME280;48139;47.474;19.034;2022-08-19T06:55:08;99845.62;;;29.65;40.48
62152;BME280;48139;47.474;19.034;2022-08-19T06:58:10;99848.34;;;29.72;40.44
62152;BME280;48139;47.474;19.034;2022-08-19T07:01:13;99849.34;;;29.84;41.27
62152;BME280;48139;47.474;19.034;2022-08-19T07:04:16;99856.19;;;30.13;40.11
62152;BME280;48139;47.474;19.034;2022-08-19T07:07:20;99864.78;;;30.67;38.76
62152;BME280;48139;47.474;19.034;2022-08-19T07:10:23;99873.13;;;30.72;38.87
62152;BME280;48139;47.474;19.034;2022-08-19T07:13:27;99879.72;;;30.83;39.38
62152;BME280;48139;47.474;19.034;2022-08-19T07:16:29;99888.69;;;30.77;38.97
62152;BME280;48139;47.474;19.034;2022-08-19T07:19:34;99884.03;;;30.97;38.60
62152;BME280;48139;47.474;19.034;2022-08-19T07:22:38;99884.00;;;31.04;38.61
62152;BME280;48139;47.474;19.034;2022-08-19T07:25:42;99888.06;;;31.26;38.20
62152;BME280;48139;47.474;19.034;2022-08-19T07:28:47;99890.09;;;31.31;38.00
62152;BME280;48139;47.474;19.034;2022-08-19T07:31:55;99896.25;;;31.44;38.40
62152;BME280;48139;47.474;19.034;2022-08-19T07:35:01;99881.63;;;31.20;38.73
62152;BME280;48139;47.474;19.034;2022-08-19T07:38:05;99881.25;;;31.17;38.91
62152;BME280;48139;47.474;19.034;2022-08-19T07:41:12;99876.34;;;31.32;37.74
62152;BME280;48139;47.474;19.034;2022-08-19T07:44:16;99879.87;;;31.33;39.89
62152;BME280;48139;47.474;19.034;2022-08-19T07:47:19;99874.13;;;31.54;37.06
62152;BME280;48139;47.474;19.034;2022-08-19T07:50:41;99872.16;;;31.68;37.11
62152;BME280;48139;47.474;19.034;2022-08-19T07:53:45;99869.13;;;31.82;37.13
62152;BME280;48139;47.474;19.034;2022-08-19T07:56:48;99877.44;;;32.05;35.81
62152;BME280;48139;47.474;19.034;2022-08-19T07:59:53;99871.94;;;32.19;34.79
62152;BME280;48139;47.474;19.034;2022-08-19T08:02:56;99877.53;;;32.42;34.33
62152;BME280;48139;47.474;19.034;2022-08-19T08:05:59;99875.47;;;32.56;33.89
62152;BME280;48139;47.474;19.034;2022-08-19T08:09:41;99876.81;;;32.71;33.61
62152;BME280;48139;47.474;19.034;2022-08-19T08:12:52;99868.94;;;32.81;32.69
62152;BME280;48139;47.474;19.034;2022-08-19T08:16:11;99871.25;;;32.96;33.79
62152;BME280;48139;47.474;19.034;2022-08-19T08:19:19;99878.25;;;33.04;32.64
62152;BME280;48139;47.474;19.034;2022-08-19T08:22:26;99876.59;;;33.03;32.54
62152;BME280;48139;47.474;19.034;2022-08-19T08:25:49;99875.97;;;33.19;32.07
62152;BME280;48139;47.474;19.034;2022-08-19T08:28:52;99878.63;;;33.37;31.93
62152;BME280;48139;47.474;19.034;2022-08-19T08:31:56;99872.88;;;33.45;31.63
62152;BME280;48139;47.474;19.034;2022-08-19T08:35:01;99877.34;;;33.40;32.08
62152;BME280;48139;47.474;19.034;2022-08-19T08:38:04;99873.84;;;33.62;31.18
62152;BME280;48139;47.474;19.034;2022-08-19T08:45:02;99869.31;;;33.98;30.30
62152;BME280;48139;47.474;19.034;2022-08-19T08:48:22;99868.47;;;33.97;28.71
62152;BME280;48139;47.474;19.034;2022-08-19T08:51:31;99854.63;;;33.87;28.58
62152;BME280;48139;47.474;19.034;2022-08-19T08:54:41;99835.75;;;34.04;28.65
62152;BME280;48139;47.474;19.034;2022-08-19T09:01:12;99847.44;;;34.16;28.50
62152;BME280;48139;47.474;19.034;2022-08-19T09:04:15;99853.47;;;34.07;28.91
62152;BME280;48139;47.474;19.034;2022-08-19T09:07:37;99857.13;;;34.00;29.08
62152;BME280;48139;47.474;19.034;2022-08-19T09:10:49;99844.47;;;34.06;29.48
62152;BME280;48139;47.474;19.034;2022-08-19T09:14:08;99843.28;;;34.14;29.15
62152;BME280;48139;47.474;19.034;2022-08-19T09:17:34;99843.88;;;34.16;29.39
62152;BME280;48139;47.474;19.034;2022-08-19T09:20:37;99849.31;;;34.39;29.01
62152;BME280;48139;47.474;19.034;2022-08-19T09:23:44;99840.81;;;34.35;29.32
62152;BME280;48139;47.474;19.034;2022-08-19T09:26:52;99836.75;;;34.50;29.04
62152;BME280;48139;47.474;19.034;2022-08-19T09:29:54;99833.28;;;34.77;28.63
62152;BME280;48139;47.474;19.034;2022-08-19T09:32:56;99839.81;;;34.93;28.78
62152;BME280;48139;47.474;19.034;2022-08-19T09:36:08;99829.75;;;34.94;28.49
62152;BME280;48139;47.474;19.034;2022-08-19T09:39:11;99815.91;;;34.95;28.94
62152;BME280;48139;47.474;19.034;2022-08-19T09:42:18;99818.63;;;35.24;29.10
62152;BME280;48139;47.474;19.034;2022-08-19T09:45:36;99817.34;;;34.86;28.16
62152;BME280;48139;47.474;19.034;2022-08-19T09:48:39;99813.50;;;34.99;27.50
62152;BME280;48139;47.474;19.034;2022-08-19T09:51:42;99810.06;;;35.03;28.45
62152;BME280;48139;47.474;19.034;2022-08-19T09:54:52;99807.81;;;35.45;28.20
62152;BME280;48139;47.474;19.034;2022-08-19T09:57:55;99804.59;;;35.65;27.86
62152;BME280;48139;47.474;19.034;2022-08-19T10:00:59;99792.88;;;35.81;27.86
62152;BME280;48139;47.474;19.034;2022-08-19T10:04:02;99787.53;;;36.08;26.68
62152;BME280;48139;47.474;19.034;2022-08-19T10:07:21;99790.00;;;36.10;25.82
62152;BME280;48139;47.474;19.034;2022-08-19T10:10:37;99793.28;;;36.12;25.91
62152;BME280;48139;47.474;19.034;2022-08-19T10:13:44;99795.53;;;36.15;25.79
62152;BME280;48139;47.474;19.034;2022-08-19T10:16:47;99789.63;;;36.01;25.79
62152;BME280;48139;47.474;19.034;2022-08-19T10:19:49;99792.31;;;36.18;25.85
62152;BME280;48139;47.474;19.034;2022-08-19T10:22:57;99782.34;;;36.50;25.96
62152;BME280;48139;47.474;19.034;2022-08-19T10:26:04;99785.13;;;36.55;25.41
62152;BME280;48139;47.474;19.034;2022-08-19T10:29:08;99781.09;;;36.36;25.32
62152;BME280;48139;47.474;19.034;2022-08-19T10:32:12;99770.16;;;36.36;26.39
62152;BME280;48139;47.474;19.034;2022-08-19T10:35:16;99784.03;;;36.13;25.36
62152;BME280;48139;47.474;19.034;2022-08-19T10:38:24;99775.06;;;36.34;27.34
62152;BME280;48139;47.474;19.034;2022-08-19T10:41:37;99780.16;;;36.25;25.68
62152;BME280;48139;47.474;19.034;2022-08-19T10:44:40;99778.25;;;36.48;25.38
62152;BME280;48139;47.474;19.034;2022-08-19T10:47:43;99773.78;;;36.63;29.93
62152;BME280;48139;47.474;19.034;2022-08-19T10:50:46;99780.66;;;36.66;25.31
62152;BME280;48139;47.474;19.034;2022-08-19T10:54:07;99773.63;;;36.48;25.37
62152;BME280;48139;47.474;19.034;2022-08-19T10:57:14;99775.06;;;36.78;26.49
62152;BME280;48139;47.474;19.034;2022-08-19T11:00:20;99780.09;;;36.64;24.61
62152;BME280;48139;47.474;19.034;2022-08-19T11:03:23;99778.66;;;36.61;24.49
62152;BME280;48139;47.474;19.034;2022-08-19T11:06:27;99777.03;;;36.60;24.66
62152;BME280;48139;47.474;19.034;2022-08-19T11:09:30;99772.00;;;36.74;24.32
62152;BME280;48139;47.474;19.034;2022-08-19T11:12:37;99764.59;;;36.96;24.26
62152;BME280;48139;47.474;19.034;2022-08-19T11:15:41;99767.63;;;37.32;23.94
62152;BME280;48139;47.474;19.034;2022-08-19T11:18:48;99772.03;;;37.33;23.57
62152;BME280;48139;47.474;19.034;2022-08-19T11:21:53;99766.28;;;37.29;24.02
62152;BME280;48139;47.474;19.034;2022-08-19T11:24:59;99766.38;;;37.12;23.99
62152;BME280;48139;47.474;19.034;2022-08-19T11:28:01;99771.06;;;37.17;24.08
62152;BME280;48139;47.474;19.034;2022-08-19T11:31:08;99775.59;;;37.06;24.02
62152;BME280;48139;47.474;19.034;2022-08-19T11:34:14;99766.03;;;37.04;24.00
62152;BME280;48139;47.474;19.034;2022-08-19T11:37:18;99758.66;;;37.04;23.69
62152;BME280;48139;47.474;19.034;2022-08-19T11:40:22;99762.72;;;37.02;23.45
62152;BME280;48139;47.474;19.034;2022-08-19T11:43:25;99773.25;;;37.15;23.49
62152;BME280;48139;47.474;19.034;2022-08-19T11:46:29;99758.56;;;37.21;23.54
62152;BME280;48139;47.474;19.034;2022-08-19T11:49:32;99753.69;;;37.28;23.17
62152;BME280;48139;47.474;19.034;2022-08-19T11:52:34;99738.91;;;37.61;23.07
62152;BME280;48139;47.474;19.034;2022-08-19T11:55:38;99747.31;;;37.97;22.52
62152;BME280;48139;47.474;19.034;2022-08-19T11:58:46;99751.75;;;38.03;22.35
62152;BME280;48139;47.474;19.034;2022-08-19T12:01:49;99745.56;;;38.32;22.05
62152;BME280;48139;47.474;19.034;2022-08-19T12:04:51;99739.38;;;38.57;21.72
62152;BME280;48139;47.474;19.034;2022-08-19T12:07:54;99729.97;;;38.28;21.78
62152;BME280;48139;47.474;19.034;2022-08-19T12:10:57;99733.56;;;38.44;21.45
62152;BME280;48139;47.474;19.034;2022-08-19T12:13:59;99736.28;;;38.39;21.67
62152;BME280;48139;47.474;19.034;2022-08-19T12:17:02;99738.75;;;38.35;21.60
62152;BME280;48139;47.474;19.034;2022-08-19T12:20:10;99738.38;;;38.11;21.96
62152;BME280;48139;47.474;19.034;2022-08-19T12:23:13;99736.22;;;38.18;21.75
62152;BME280;48139;47.474;19.034;2022-08-19T12:26:17;99743.91;;;38.21;21.75
62152;BME280;48139;47.474;19.034;2022-08-19T12:29:21;99736.91;;;37.99;21.92
62152;BME280;48139;47.474;19.034;2022-08-19T12:32:25;99745.56;;;38.22;21.92
62152;BME280;48139;47.474;19.034;2022-08-19T12:35:28;99751.31;;;38.36;21.82
62152;BME280;48139;47.474;19.034;2022-08-19T12:38:33;99742.72;;;38.02;21.93
62152;BME280;48139;47.474;19.034;2022-08-19T12:41:39;99730.31;;;37.84;22.05
62152;BME280;48139;47.474;19.034;2022-08-19T12:44:55;99721.81;;;37.86;22.14
62152;BME280;48139;47.474;19.034;2022-08-19T12:47:58;99717.47;;;37.90;22.35
62152;BME280;48139;47.474;19.034;2022-08-19T12:51:09;99711.69;;;37.81;21.95
62152;BME280;48139;47.474;19.034;2022-08-19T12:54:12;99707.06;;;37.87;21.87
62152;BME280;48139;47.474;19.034;2022-08-19T12:57:15;99703.87;;;38.05;21.98
62152;BME280;48139;47.474;19.034;2022-08-19T13:00:20;99699.78;;;38.08;21.92
62152;BME280;48139;47.474;19.034;2022-08-19T13:03:23;99688.34;;;38.26;21.72
62152;BME280;48139;47.474;19.034;2022-08-19T13:06:31;99702.88;;;38.31;21.71
62152;BME280;48139;47.474;19.034;2022-08-19T13:09:33;99700.16;;;38.37;21.90
62152;BME280;48139;47.474;19.034;2022-08-19T13:12:37;99700.78;;;38.54;21.56
62152;BME280;48139;47.474;19.034;2022-08-19T13:15:41;99688.19;;;38.63;21.29
62152;BME280;48139;47.474;19.034;2022-08-19T13:18:46;99691.22;;;38.77;21.34
62152;BME280;48139;47.474;19.034;2022-08-19T13:21:54;99696.13;;;38.74;20.75
62152;BME280;48139;47.474;19.034;2022-08-19T13:25:05;99692.75;;;38.27;21.04
62152;BME280;48139;47.474;19.034;2022-08-19T13:28:08;99685.12;;;38.44;21.06
62152;BME280;48139;47.474;19.034;2022-08-19T13:31:16;99679.38;;;38.41;21.21
62152;BME280;48139;47.474;19.034;2022-08-19T13:34:38;99684.53;;;38.27;21.61
62152;BME280;48139;47.474;19.034;2022-08-19T13:37:41;99685.97;;;37.82;22.06
62152;BME280;48139;47.474;19.034;2022-08-19T13:40:44;99684.44;;;37.54;22.25
62152;BME280;48139;47.474;19.034;2022-08-19T13:43:47;99679.84;;;37.18;23.17
62152;BME280;48139;47.474;19.034;2022-08-19T13:46:50;99677.31;;;36.80;24.57
62152;BME280;48139;47.474;19.034;2022-08-19T13:49:56;99679.75;;;37.08;24.69
62152;BME280;48139;47.474;19.034;2022-08-19T13:52:59;99664.25;;;37.13;23.77
62152;BME280;48139;47.474;19.034;2022-08-19T13:56:05;99664.88;;;37.31;23.83
62152;BME280;48139;47.474;19.034;2022-08-19T13:59:07;99681.72;;;37.12;25.06
62152;BME280;48139;47.474;19.034;2022-08-19T14:02:10;99671.03;;;36.52;26.79
62152;BME280;48139;47.474;19.034;2022-08-19T14:05:16;99684.53;;;35.55;28.92
62152;BME280;48139;47.474;19.034;2022-08-19T14:08:18;99691.53;;;34.67;30.90
62152;BME280;48139;47.474;19.034;2022-08-19T14:11:21;99676.66;;;34.01;32.13
62152;BME280;48139;47.474;19.034;2022-08-19T14:14:25;99676.13;;;33.65;32.60
62152;BME280;48139;47.474;19.034;2022-08-19T14:17:27;99670.00;;;33.46;32.89
62152;BME280;48139;47.474;19.034;2022-08-19T14:20:34;99668.69;;;33.60;32.68
62152;BME280;48139;47.474;19.034;2022-08-19T14:23:37;99673.63;;;33.63;32.45
62152;BME280;48139;47.474;19.034;2022-08-19T14:26:39;99668.81;;;33.65;32.72
62152;BME280;48139;47.474;19.034;2022-08-19T14:29:42;99665.50;;;33.75;32.43
62152;BME280;48139;47.474;19.034;2022-08-19T14:32:45;99673.87;;;33.50;32.85
62152;BME280;48139;47.474;19.034;2022-08-19T14:35:48;99663.03;;;33.73;32.72
62152;BME280;48139;47.474;19.034;2022-08-19T14:38:50;99653.22;;;33.72;31.97
62152;BME280;48139;47.474;19.034;2022-08-19T14:41:53;99665.16;;;33.59;32.07
62152;BME280;48139;47.474;19.034;2022-08-19T14:44:59;99674.63;;;33.34;32.11
62152;BME280;48139;47.474;19.034;2022-08-19T14:48:04;99660.03;;;33.05;32.30
62152;BME280;48139;47.474;19.034;2022-08-19T14:51:07;99662.75;;;33.05;32.26
62152;BME280;48139;47.474;19.034;2022-08-19T14:54:10;99671.75;;;33.17;31.96
